createdAt,value
2023-01-11T00:00:17.627Z,100359.53
2023-01-11T00:02:47.041Z,100362.13
2023-01-11T00:05:16.348Z,100372.53
2023-01-11T00:07:45.128Z,100372.59
2023-01-11T00:10:13.795Z,100376.94
2023-01-11T00:12:42.390Z,100376.09
2023-01-11T00:15:13.282Z,100374.41
2023-01-11T00:17:42.547Z,100380.41
2023-01-11T00:20:11.972Z,100376.09
2023-01-11T00:22:40.829Z,100380.41
2023-01-11T00:25:13.647Z,100383.00
2023-01-11T00:27:42.358Z,100388.19
2023-01-11T00:30:13.526Z,100394.25
2023-01-11T00:32:42.194Z,100385.59
2023-01-11T00:35:14.362Z,100392.50
2023-01-11T00:37:43.131Z,100387.31
2023-01-11T00:40:12.462Z,100392.44
2023-01-11T00:42:58.815Z,100389.78
2023-01-11T00:45:46.694Z,100387.16
2023-01-11T00:48:16.471Z,100388.00
2023-01-11T00:50:45.368Z,100393.13
2023-01-11T00:53:14.584Z,100387.06
2023-01-11T00:55:43.520Z,100388.78
2023-01-11T00:58:12.591Z,100381.88
2023-01-11T01:00:43.551Z,100387.97
2023-01-11T01:03:12.550Z,100394.03
2023-01-11T01:05:40.986Z,100391.44
2023-01-11T01:08:12.028Z,100393.16
2023-01-11T01:10:40.553Z,100394.03
2023-01-11T01:13:29.599Z,100398.34
2023-01-11T01:16:00.158Z,100399.22
2023-01-11T01:18:28.788Z,100399.25
2023-01-11T01:20:57.190Z,100401.88
2023-01-11T01:23:25.741Z,100418.38
2023-01-11T01:25:54.246Z,100420.13
2023-01-11T01:28:23.251Z,100419.28
2023-01-11T01:30:52.928Z,100420.22
2023-01-11T01:33:23.030Z,100415.91
2023-01-11T01:35:52.258Z,100396.09
2023-01-11T01:38:20.712Z,100416.75
2023-01-11T01:40:52.640Z,100417.69
2023-01-11T01:43:21.450Z,100416.00
2023-01-11T01:45:53.006Z,100415.16
2023-01-11T01:48:28.097Z,100420.41
2023-01-11T01:51:01.150Z,100423.09
2023-01-11T01:53:35.866Z,100424.88
2023-01-11T01:56:09.848Z,100417.13
2023-01-11T01:58:46.760Z,100415.41
2023-01-11T02:01:36.694Z,100424.06
2023-01-11T02:04:14.370Z,100428.41
2023-01-11T02:06:43.578Z,100425.84
2023-01-11T02:09:23.531Z,100426.72
2023-01-11T02:11:54.602Z,100425.88
2023-01-11T02:14:29.345Z,100431.97
2023-01-11T02:16:58.128Z,100431.16
2023-01-11T02:19:43.461Z,100432.09
2023-01-11T02:22:46.701Z,100426.97
2023-01-11T02:25:34.694Z,100423.56
2023-01-11T02:28:10.411Z,100433.97
2023-01-11T02:30:48.386Z,100435.69
2023-01-11T02:33:24.592Z,100433.09
2023-01-11T02:36:06.054Z,100441.69
2023-01-11T02:38:41.788Z,100438.25
2023-01-11T02:41:20.567Z,100441.69
2023-01-11T02:44:17.773Z,100445.16
2023-01-11T02:46:50.892Z,100446.03
2023-01-11T02:49:29.512Z,100455.53
2023-01-11T02:52:05.800Z,100452.94
2023-01-11T02:54:35.503Z,100450.34
2023-01-11T02:57:05.562Z,100459.81
2023-01-11T02:59:37.679Z,100456.34
2023-01-11T03:02:07.133Z,100452.88
2023-01-11T03:04:36.958Z,100446.78
2023-01-11T03:07:20.954Z,100445.06
2023-01-11T03:10:02.513Z,100440.72
2023-01-11T03:12:52.304Z,100443.31
2023-01-11T03:15:35.692Z,100445.97
2023-01-11T03:18:16.491Z,100435.59
2023-01-11T03:20:51.765Z,100441.66
2023-01-11T03:23:26.013Z,100441.69
2023-01-11T03:26:01.600Z,100437.31
2023-01-11T03:28:39.298Z,100438.19
2023-01-11T03:31:18.369Z,100438.19
2023-01-11T03:33:55.802Z,100433.03
2023-01-11T03:36:28.879Z,100432.19
2023-01-11T03:39:02.277Z,100423.53
2023-01-11T03:41:35.836Z,100417.47
2023-01-11T03:44:10.206Z,100419.22
2023-01-11T03:46:45.883Z,100421.81
2023-01-11T03:49:17.682Z,100420.06
2023-01-11T03:51:49.470Z,100416.66
2023-01-11T03:54:25.785Z,100420.94
2023-01-11T03:57:01.613Z,100419.22
2023-01-11T03:59:30.225Z,100420.03
2023-01-11T04:02:01.202Z,100418.25
2023-01-11T04:04:30.699Z,100411.25
2023-01-11T04:06:59.610Z,100420.78
2023-01-11T04:09:29.383Z,100423.38
2023-01-11T04:11:58.495Z,100418.22
2023-01-11T04:14:27.346Z,100419.97
2023-01-11T04:16:56.064Z,100424.34
2023-01-11T04:19:26.311Z,100425.19
2023-01-11T04:21:54.779Z,100432.94
2023-01-11T04:24:23.312Z,100424.34
2023-01-11T04:26:52.410Z,100422.56
2023-01-11T04:29:20.969Z,100421.75
2023-01-11T04:31:49.585Z,100422.66
2023-01-11T04:34:18.283Z,100424.44
2023-01-11T04:36:48.121Z,100412.38
2023-01-11T04:39:17.807Z,100414.13
2023-01-11T04:42:04.452Z,100420.16
2023-01-11T04:44:33.431Z,100414.94
2023-01-11T04:47:02.057Z,100420.13
2023-01-11T04:49:31.168Z,100426.16
2023-01-11T04:52:01.113Z,100427.91
2023-01-11T04:54:29.680Z,100430.50
2023-01-11T04:56:59.385Z,100428.78
2023-01-11T04:59:28.111Z,100429.63
2023-01-11T05:01:57.192Z,100416.72
2023-01-11T05:04:26.295Z,100421.91
2023-01-11T05:06:55.117Z,100421.03
2023-01-11T05:09:25.675Z,100421.91
2023-01-11T05:11:54.697Z,100421.94
2023-01-11T05:14:23.836Z,100417.63
2023-01-11T05:16:52.467Z,100423.69
2023-01-11T05:19:21.761Z,100421.97
2023-01-11T05:21:50.489Z,100420.22
2023-01-11T05:24:19.764Z,100427.16
2023-01-11T05:26:50.662Z,100421.09
2023-01-11T05:29:20.590Z,100420.22
2023-01-11T05:31:50.170Z,100422.81
2023-01-11T05:34:19.262Z,100423.63
2023-01-11T05:36:47.943Z,100425.34
2023-01-11T05:39:16.782Z,100426.22
2023-01-11T05:41:46.125Z,100420.16
2023-01-11T05:44:33.649Z,100418.38
2023-01-11T05:47:02.593Z,100421.03
2023-01-11T05:49:31.553Z,100428.78
2023-01-11T05:52:00.178Z,100415.78
2023-01-11T05:54:29.010Z,100420.94
2023-01-11T05:56:58.653Z,100420.06
2023-01-11T05:59:31.953Z,100428.66
2023-01-11T06:02:01.276Z,100428.63
2023-01-11T06:04:30.690Z,100421.66
2023-01-11T06:06:59.808Z,100423.38
2023-01-11T06:09:28.560Z,100416.41
2023-01-11T06:11:57.459Z,100420.75
2023-01-11T06:14:26.746Z,100416.41
2023-01-11T06:16:57.053Z,100416.41
2023-01-11T06:19:30.174Z,100415.53
2023-01-11T06:21:59.805Z,100407.81
2023-01-11T06:24:32.763Z,100411.31
2023-01-11T06:27:01.378Z,100401.00
2023-01-11T06:29:30.244Z,100398.44
2023-01-11T06:32:03.243Z,100406.22
2023-01-11T06:34:31.907Z,100394.22
2023-01-11T06:37:00.510Z,100394.25
2023-01-11T06:39:29.258Z,100386.53
2023-01-11T06:41:57.924Z,100396.09
2023-01-11T06:44:26.825Z,100394.44
2023-01-11T06:47:00.386Z,100399.66
2023-01-11T06:49:29.060Z,100401.50
2023-01-11T06:51:57.592Z,100398.06
2023-01-11T06:54:26.741Z,100394.69
2023-01-11T06:56:55.957Z,100398.19
2023-01-11T06:59:24.950Z,100391.31
2023-01-11T07:01:54.042Z,100392.22
2023-01-11T07:04:24.969Z,100390.50
2023-01-11T07:06:55.924Z,100391.41
2023-01-11T07:09:25.054Z,100394.00
2023-01-11T07:11:54.490Z,100392.25
2023-01-11T07:14:25.240Z,100392.25
2023-01-11T07:16:54.782Z,100394.00
2023-01-11T07:19:24.890Z,100396.56
2023-01-11T07:21:53.962Z,100392.25
2023-01-11T07:24:24.558Z,100396.50
2023-01-11T07:26:55.114Z,100397.34
2023-01-11T07:29:23.686Z,100393.81
2023-01-11T07:31:52.657Z,100398.91
2023-01-11T07:34:21.666Z,100402.25
2023-01-11T07:36:52.339Z,100406.53
2023-01-11T07:39:26.824Z,100406.50
2023-01-11T07:42:17.814Z,100416.00
2023-01-11T07:44:46.591Z,100409.91
2023-01-11T07:47:15.607Z,100412.50
2023-01-11T07:49:44.516Z,100403.84
2023-01-11T07:52:14.652Z,100403.00
2023-01-11T07:54:43.562Z,100402.97
2023-01-11T07:57:12.037Z,100404.66
2023-01-11T07:59:41.030Z,100404.66
2023-01-11T08:02:12.271Z,100404.59
2023-01-11T08:04:41.690Z,100408.00
2023-01-11T08:07:10.719Z,100404.44
2023-01-11T08:09:41.257Z,100398.38
2023-01-11T08:12:27.624Z,100397.47
2023-01-11T08:14:56.391Z,100392.31
2023-01-11T08:17:25.167Z,100391.41
2023-01-11T08:19:56.009Z,100381.91
2023-01-11T08:22:25.197Z,100383.53
2023-01-11T08:24:55.590Z,100381.81
2023-01-11T08:27:25.654Z,100383.53
2023-01-11T08:29:54.635Z,100391.31
2023-01-11T08:32:23.489Z,100389.56
2023-01-11T08:34:52.304Z,100389.56
2023-01-11T08:37:21.182Z,100396.41
2023-01-11T08:39:49.965Z,100398.16
2023-01-11T08:42:20.275Z,100396.47
2023-01-11T08:44:49.169Z,100393.91
2023-01-11T08:47:18.035Z,100391.22
2023-01-11T08:49:46.707Z,100391.19
2023-01-11T08:52:15.607Z,100391.16
2023-01-11T08:54:44.506Z,100391.19
2023-01-11T08:57:15.812Z,100388.50
2023-01-11T08:59:46.390Z,100391.06
2023-01-11T09:02:15.469Z,100392.78
2023-01-11T09:04:46.680Z,100391.09
2023-01-11T09:07:15.622Z,100388.44
2023-01-11T09:09:44.318Z,100391.78
2023-01-11T09:12:14.342Z,100385.59
2023-01-11T09:14:43.882Z,100383.72
2023-01-11T09:17:14.188Z,100385.44
2023-01-11T09:19:43.007Z,100379.31
2023-01-11T09:22:11.940Z,100384.44
2023-01-11T09:24:40.757Z,100380.16
2023-01-11T09:27:12.047Z,100376.66
2023-01-11T09:29:41.368Z,100367.16
2023-01-11T09:32:14.492Z,100367.91
2023-01-11T09:34:45.340Z,100369.53
2023-01-11T09:37:15.787Z,100366.97
2023-01-11T09:39:45.676Z,100360.09
2023-01-11T09:42:35.668Z,100360.09
2023-01-11T09:45:14.636Z,100351.41
2023-01-11T09:47:50.276Z,100347.13
2023-01-11T09:50:23.921Z,100347.16
2023-01-11T09:52:54.803Z,100340.38
2023-01-11T09:55:33.896Z,100340.34
2023-01-11T09:58:22.162Z,100334.28
2023-01-11T10:00:56.108Z,100335.13
2023-01-11T10:04:26.103Z,100341.03
2023-01-11T10:07:13.574Z,100328.00
2023-01-11T10:18:31.356Z,100333.09
2023-01-11T10:21:58.334Z,100328.50
2023-01-11T10:24:30.336Z,100327.66
2023-01-11T10:27:02.288Z,100329.44
2023-01-11T10:29:57.880Z,100319.78
2023-01-11T10:32:45.931Z,100319.72
2023-01-11T10:35:41.484Z,100309.44
2023-01-11T10:38:41.323Z,100312.06
2023-01-11T10:41:22.348Z,100306.88
2023-01-11T10:44:02.859Z,100299.09
2023-01-11T10:46:33.537Z,100297.28
2023-01-11T10:49:14.626Z,100293.81
2023-01-11T10:51:49.316Z,100299.94
2023-01-11T10:54:22.257Z,100297.28
2023-01-11T10:57:09.141Z,100299.06
2023-01-11T10:59:55.549Z,100291.28
2023-01-11T11:02:40.295Z,100296.50
2023-01-11T11:05:24.922Z,100293.88
2023-01-11T11:07:59.985Z,100286.06
2023-01-11T11:10:37.745Z,100283.47
2023-01-11T11:13:15.146Z,100282.47
2023-01-11T11:15:54.117Z,100271.22
2023-01-11T11:18:23.939Z,100274.53
2023-01-11T11:20:52.947Z,100268.34
2023-01-11T11:23:26.284Z,100271.88
2023-01-11T11:25:59.175Z,100273.59
2023-01-11T11:28:30.680Z,100265.75
2023-01-11T11:31:01.775Z,100259.69
2023-01-11T11:33:35.412Z,100261.28
2023-01-11T11:36:08.146Z,100258.75
2023-01-11T11:38:40.650Z,100258.69
2023-01-11T11:41:12.521Z,100249.81
2023-01-11T11:43:41.949Z,100252.31
2023-01-11T11:46:25.221Z,100245.88
2023-01-11T11:49:21.209Z,100244.91
2023-01-11T11:51:50.613Z,100234.50
2023-01-11T11:54:30.937Z,100231.03
2023-01-11T11:57:13.345Z,100228.56
2023-01-11T11:59:47.413Z,100226.91
2023-01-11T12:02:29.842Z,100219.22
2023-01-11T12:05:00.437Z,100216.63
2023-01-11T12:07:36.099Z,100220.19
2023-01-11T12:10:14.674Z,100217.59
2023-01-11T12:12:55.641Z,100211.47
2023-01-11T12:15:30.367Z,100220.91
2023-01-11T12:18:24.553Z,100215.75
2023-01-11T12:20:53.607Z,100218.28
2023-01-11T12:23:24.494Z,100206.22
2023-01-11T12:26:18.240Z,100205.22
2023-01-11T12:29:04.124Z,100206.13
2023-01-11T12:31:43.843Z,100199.22
2023-01-11T12:34:35.466Z,100200.16
2023-01-11T12:37:14.490Z,100184.59
2023-01-11T12:39:53.122Z,100183.69
2023-01-11T12:42:40.239Z,100175.84
2023-01-11T12:45:21.683Z,100173.53
2023-01-11T12:48:25.489Z,100168.34
2023-01-11T12:51:08.845Z,100177.00
2023-01-11T12:53:54.053Z,100175.31
2023-01-11T12:56:48.405Z,100170.78
2023-01-11T12:59:41.264Z,100175.03
2023-01-11T13:02:30.652Z,100162.88
2023-01-11T13:05:10.210Z,100170.63
2023-01-11T13:07:49.908Z,100180.97
2023-01-11T13:10:30.444Z,100178.38
2023-01-11T13:13:07.322Z,100176.66
2023-01-11T13:15:49.113Z,100175.69
2023-01-11T13:18:24.552Z,100173.06
2023-01-11T13:21:01.707Z,100174.91
2023-01-11T13:23:39.305Z,100174.88
2023-01-11T13:26:25.085Z,100177.50
2023-01-11T13:29:01.820Z,100177.47
2023-01-11T13:31:38.938Z,100174.09
2023-01-11T13:34:18.599Z,100178.47
2023-01-11T13:36:53.150Z,100181.16
2023-01-11T13:39:28.781Z,100180.28
2023-01-11T13:42:03.566Z,100176.00
2023-01-11T13:44:37.255Z,100176.03
2023-01-11T13:47:12.388Z,100173.56
2023-01-11T13:49:50.768Z,100183.13
2023-01-11T13:52:22.131Z,100177.13
2023-01-11T13:54:59.800Z,100174.56
2023-01-11T13:57:35.883Z,100166.72
2023-01-11T14:00:12.651Z,100175.41
2023-01-11T14:02:48.593Z,100169.28
2023-01-11T14:05:21.564Z,100175.31
2023-01-11T14:08:02.387Z,100171.94
2023-01-11T14:10:40.967Z,100170.28
2023-01-11T14:13:54.024Z,100163.41
2023-01-11T14:16:33.042Z,100161.75
2023-01-11T14:19:16.344Z,100149.66
2023-01-11T14:22:07.499Z,100147.09
2023-01-11T14:24:42.416Z,100146.25
2023-01-11T14:27:33.357Z,100142.78
2023-01-11T14:30:23.234Z,100135.94
2023-01-11T14:33:24.724Z,100136.84
2023-01-11T14:36:11.084Z,100133.47
2023-01-11T14:39:06.791Z,100129.09
2023-01-11T14:42:12.147Z,100121.31
2023-01-11T14:45:23.418Z,100121.31
2023-01-11T14:48:06.476Z,100116.13
2023-01-11T14:50:46.795Z,100107.47
2023-01-11T14:53:21.700Z,100106.56
2023-01-11T14:55:52.860Z,100104.78
2023-01-11T14:58:27.255Z,100090.91
2023-01-11T15:01:12.027Z,100092.66
2023-01-11T15:03:52.019Z,100097.03
2023-01-11T15:06:22.966Z,100091.88
2023-01-11T15:08:56.126Z,100083.25
2023-01-11T15:11:32.245Z,100095.41
2023-01-11T15:14:04.937Z,100092.81
2023-01-11T15:16:53.110Z,100095.41
2023-01-11T15:19:28.867Z,100087.50
2023-01-11T15:21:59.987Z,100082.25
2023-01-11T15:24:34.298Z,100085.69
2023-01-11T15:27:04.055Z,100084.84
2023-01-11T15:29:34.343Z,100081.38
2023-01-11T15:32:15.597Z,100083.09
2023-01-11T15:34:46.376Z,100072.69
2023-01-11T15:37:29.827Z,100069.25
2023-01-11T15:40:05.311Z,100076.16
2023-01-11T15:42:58.301Z,100073.63
2023-01-11T15:46:32.657Z,100068.41
2023-01-11T15:49:50.997Z,100069.31
2023-01-11T15:53:04.513Z,100066.72
2023-01-11T15:56:16.767Z,100061.47
2023-01-11T15:59:30.817Z,100060.59
2023-01-11T16:02:35.994Z,100058.84
2023-01-11T16:05:17.274Z,100058.78
2023-01-11T16:07:58.054Z,100066.59
2023-01-11T16:10:48.605Z,100068.31
2023-01-11T16:13:35.338Z,100063.13
2023-01-11T16:16:18.067Z,100076.03
2023-01-11T16:18:52.330Z,100063.94
2023-01-11T16:21:33.867Z,100064.81
2023-01-11T16:24:05.855Z,100052.66
2023-01-11T16:26:35.946Z,100057.03
2023-01-11T16:29:12.646Z,100066.56
2023-01-11T16:32:01.870Z,100065.66
2023-01-11T16:34:32.336Z,100061.28
2023-01-11T16:37:02.395Z,100061.28
2023-01-11T16:39:34.758Z,100062.13
2023-01-11T16:42:06.350Z,100058.63
2023-01-11T16:44:49.078Z,100053.44
2023-01-11T16:47:18.707Z,100040.41
2023-01-11T16:49:50.290Z,100049.09
2023-01-11T16:52:40.703Z,100044.78
2023-01-11T16:55:29.797Z,100046.53
2023-01-11T16:58:01.506Z,100047.41
2023-01-11T17:00:38.918Z,100050.06
2023-01-11T17:03:25.912Z,100044.88
2023-01-11T17:06:04.457Z,100044.06
2023-01-11T17:08:35.931Z,100044.97
2023-01-11T17:11:17.962Z,100054.50
2023-01-11T17:13:58.247Z,100054.53
2023-01-11T17:16:31.611Z,100045.06
2023-01-11T17:19:08.203Z,100047.59
2023-01-11T17:21:41.651Z,100044.13
2023-01-11T17:24:26.465Z,100038.91
2023-01-11T17:27:03.475Z,100039.75
2023-01-11T17:29:39.620Z,100042.34
2023-01-11T17:32:18.599Z,100035.38
2023-01-11T17:34:50.489Z,100020.69
2023-01-11T17:37:20.823Z,100022.41
2023-01-11T17:39:53.939Z,100023.28
2023-01-11T17:42:40.915Z,100030.13
2023-01-11T17:45:26.164Z,100033.56
2023-01-11T17:47:57.811Z,100026.66
2023-01-11T17:50:30.293Z,100035.31
2023-01-11T17:53:08.438Z,100035.31
2023-01-11T17:55:53.882Z,100024.06
2023-01-11T17:58:27.719Z,100018.88
2023-01-11T18:01:28.887Z,100013.72
2023-01-11T18:04:01.490Z,100007.69
2023-01-11T18:06:36.290Z,100019.84
2023-01-11T18:09:11.964Z,100016.44
2023-01-11T18:11:46.896Z,100014.78
2023-01-11T18:14:24.631Z,100005.38
2023-01-11T18:17:02.145Z,99998.63
2023-01-11T18:19:44.540Z,100007.41
2023-01-11T18:22:33.027Z,100009.25
2023-01-11T18:25:22.681Z,100007.56
2023-01-11T18:28:26.012Z,100007.56
2023-01-11T18:31:02.803Z,99998.09
2023-01-11T18:33:35.472Z,100002.41
2023-01-11T18:36:28.597Z,100001.59
2023-01-11T18:38:57.421Z,99997.25
2023-01-11T18:41:47.062Z,99998.03
2023-01-11T18:44:23.920Z,99998.81
2023-01-11T18:46:53.140Z,99990.09
2023-01-11T18:49:21.587Z,99991.81
2023-01-11T18:51:52.029Z,99993.44
2023-01-11T18:54:22.444Z,99985.63
2023-01-11T18:56:51.272Z,99988.22
2023-01-11T18:59:20.054Z,99974.38
2023-01-11T19:02:01.693Z,99983.03
2023-01-11T19:04:41.657Z,99977.06
2023-01-11T19:07:16.512Z,99978.03
2023-01-11T19:09:46.379Z,99981.59
2023-01-11T19:12:16.786Z,99976.47
2023-01-11T19:14:47.912Z,99978.31
2023-01-11T19:17:20.505Z,99973.25
2023-01-11T19:19:49.459Z,99976.78
2023-01-11T19:22:23.338Z,99976.81
2023-01-11T19:24:58.168Z,99980.31
2023-01-11T19:27:28.373Z,99973.47
2023-01-11T19:30:04.179Z,99975.34
2023-01-11T19:32:33.518Z,99978.94
2023-01-11T19:35:05.471Z,99981.59
2023-01-11T19:37:39.964Z,99975.63
2023-01-11T19:40:10.987Z,99976.59
2023-01-11T19:42:42.889Z,99965.44
2023-01-11T19:45:12.164Z,99969.81
2023-01-11T19:47:50.434Z,99967.25
2023-01-11T19:50:23.145Z,99967.25
2023-01-11T19:52:56.247Z,99964.72
2023-01-11T19:55:38.417Z,99960.38
2023-01-11T19:58:08.521Z,99968.03
2023-01-11T20:00:37.783Z,99961.00
2023-01-11T20:03:07.449Z,99955.69
2023-01-11T20:05:38.510Z,99957.44
2023-01-11T20:08:13.507Z,99956.56
2023-01-11T20:10:43.039Z,99953.97
2023-01-11T20:13:14.441Z,99951.41
2023-01-11T20:15:43.586Z,99959.22
2023-01-11T20:18:15.162Z,99960.97
2023-01-11T20:20:48.278Z,99948.94
2023-01-11T20:23:21.842Z,99944.69
2023-01-11T20:25:53.110Z,99943.03
2023-01-11T20:28:32.290Z,99950.72
2023-01-11T20:31:02.544Z,99949.84
2023-01-11T20:33:34.535Z,99938.63
2023-01-11T20:36:10.882Z,99944.69
2023-01-11T20:38:43.236Z,99943.81
2023-01-11T20:41:43.869Z,99942.06
2023-01-11T20:44:19.867Z,99931.69
2023-01-11T20:46:51.916Z,99928.19
2023-01-11T20:49:21.093Z,99926.53
2023-01-11T20:51:50.072Z,99926.53
2023-01-11T20:54:22.504Z,99915.28
2023-01-11T20:56:53.029Z,99922.22
2023-01-11T20:59:25.829Z,99919.63
2023-01-11T21:01:57.748Z,99921.34
2023-01-11T21:04:27.974Z,99914.47
2023-01-11T21:06:58.168Z,99924.06
2023-01-11T21:09:29.515Z,99914.59
2023-01-11T21:11:58.850Z,99912.81
2023-01-11T21:14:27.908Z,99903.34
2023-01-11T21:16:57.059Z,99910.19
2023-01-11T21:19:26.894Z,99905.84
2023-01-11T21:21:58.783Z,99907.59
2023-01-11T21:24:29.803Z,99917.94
2023-01-11T21:26:58.922Z,99912.84
2023-01-11T21:29:27.706Z,99907.66
2023-01-11T21:31:56.782Z,99906.81
2023-01-11T21:34:28.034Z,99911.16
2023-01-11T21:36:57.133Z,99910.38
2023-01-11T21:39:27.015Z,99912.19
2023-01-11T21:42:00.339Z,99918.22
2023-01-11T21:44:33.744Z,99921.72
2023-01-11T21:47:03.807Z,99920.06
2023-01-11T21:49:33.469Z,99919.28
2023-01-11T21:52:10.157Z,99913.22
2023-01-11T21:54:42.135Z,99914.06
2023-01-11T21:57:12.962Z,99901.16
2023-01-11T21:59:41.760Z,99903.75
2023-01-11T22:02:11.349Z,99904.59
2023-01-11T22:04:40.564Z,99903.69
2023-01-11T22:07:09.783Z,99898.44
2023-01-11T22:09:44.795Z,99913.03
2023-01-11T22:12:26.846Z,99907.84
2023-01-11T22:14:56.443Z,99908.59
2023-01-11T22:17:28.004Z,99911.91
2023-01-11T22:19:57.050Z,99917.88
2023-01-11T22:22:26.001Z,99911.81
2023-01-11T22:24:55.383Z,99911.59
2023-01-11T22:27:26.436Z,99910.63
2023-01-11T22:29:58.278Z,99918.31
2023-01-11T22:32:33.802Z,99910.41
2023-01-11T22:35:03.782Z,99915.47
2023-01-11T22:37:32.962Z,99918.88
2023-01-11T22:40:07.718Z,99911.94
2023-01-11T22:42:40.967Z,99898.00
2023-01-11T22:45:21.626Z,99904.91
2023-01-11T22:47:56.719Z,99913.63
2023-01-11T22:50:32.682Z,99898.06
2023-01-11T22:53:03.398Z,99910.94
2023-01-11T22:55:36.816Z,99910.94
2023-01-11T22:58:11.495Z,99904.91
2023-01-11T23:00:43.456Z,99899.66
2023-01-11T23:03:16.698Z,99895.22
2023-01-11T23:06:01.005Z,99898.59
2023-01-11T23:08:30.165Z,99898.56
2023-01-11T23:11:01.910Z,99897.66
2023-01-11T23:13:49.789Z,99895.03
2023-01-11T23:16:20.843Z,99899.38
2023-01-11T23:18:50.056Z,99914.97
2023-01-11T23:21:22.010Z,99897.75
2023-01-11T23:23:54.155Z,99897.66
2023-01-11T23:26:23.975Z,99902.00
2023-01-11T23:28:57.371Z,99908.00
2023-01-11T23:31:30.768Z,99904.59
2023-01-11T23:34:18.668Z,99916.66
2023-01-11T23:36:52.733Z,99906.19
2023-01-11T23:39:30.865Z,99909.59
2023-01-11T23:42:20.575Z,99906.13
2023-01-11T23:44:51.276Z,99905.25
2023-01-11T23:47:23.951Z,99897.44
2023-01-11T23:49:57.796Z,99914.81
2023-01-11T23:52:30.617Z,99909.63
2023-01-11T23:55:02.567Z,99903.50
2023-01-11T23:57:31.603Z,99915.50
